Weather at Syamsudin Noor International Airport

Public forecast

Using degrees Celsius for public forecast. Weather courtesy of forecast.io.

Current aviation weather report (METAR) for Syamsudin Noor International Airport

2024/05/21 16:00 (retrieved 36 minutes ago)

WAOO 211600Z AUTO VRB02KT 9999 FEW047 BKN060 BKN190 28/27 Q1008

Aviation forecast (TAF) for Syamsudin Noor International Airport

2024/05/21 12:50 (retrieved 4 hours ago)

TAF WAOO 211100Z 2112/2212 12006KT 9999 SCT018 TEMPO 2203/2207 5000 RA